createdAt,value
2022-11-29T00:01:36.437Z,61.40
2022-11-29T00:04:04.301Z,61.13
2022-11-29T00:06:33.467Z,61.20
2022-11-29T00:09:06.194Z,60.57
2022-11-29T00:11:54.495Z,61.32
2022-11-29T00:14:22.446Z,61.03
2022-11-29T00:17:02.580Z,61.95
2022-11-29T00:19:35.470Z,61.56
2022-11-29T00:22:03.882Z,61.99
2022-11-29T00:24:34.572Z,62.38
2022-11-29T00:27:01.925Z,62.74
2022-11-29T00:29:29.985Z,62.03
2022-11-29T00:31:57.348Z,62.57
2022-11-29T00:34:24.683Z,62.59
2022-11-29T00:36:52.281Z,62.50
2022-11-29T00:39:19.846Z,62.61
2022-11-29T00:41:47.172Z,62.49
2022-11-29T00:44:19.937Z,62.10
2022-11-29T00:46:48.846Z,62.39
2022-11-29T00:49:16.831Z,62.53
2022-11-29T00:51:44.170Z,62.53
2022-11-29T00:54:11.726Z,62.77
2022-11-29T00:56:39.322Z,62.90
2022-11-29T00:59:06.682Z,62.67
2022-11-29T01:01:34.086Z,62.90
2022-11-29T01:04:02.097Z,62.83
2022-11-29T01:06:29.493Z,63.29
2022-11-29T01:08:57.048Z,63.41
2022-11-29T01:11:26.231Z,63.74
2022-11-29T01:13:55.974Z,63.21
2022-11-29T01:16:23.546Z,63.38
2022-11-29T01:18:51.291Z,63.53
2022-11-29T01:21:21.618Z,62.81
2022-11-29T01:23:49.677Z,63.16
2022-11-29T01:26:20.317Z,63.40
2022-11-29T01:28:49.202Z,63.22
2022-11-29T01:31:22.608Z,62.83
2022-11-29T01:33:54.106Z,62.53
2022-11-29T01:36:21.789Z,63.02
2022-11-29T01:38:49.145Z,63.34
2022-11-29T01:41:22.894Z,63.41
2022-11-29T01:44:01.669Z,63.12
2022-11-29T01:46:31.667Z,62.82
2022-11-29T01:49:03.870Z,62.95
2022-11-29T01:51:32.793Z,62.68
2022-11-29T01:54:00.496Z,62.95
2022-11-29T01:56:29.636Z,62.34
2022-11-29T01:58:57.058Z,62.78
2022-11-29T02:01:25.182Z,63.27
2022-11-29T02:03:53.346Z,62.79
2022-11-29T02:06:20.940Z,62.33
2022-11-29T02:08:48.237Z,62.54
2022-11-29T02:11:15.532Z,62.64
2022-11-29T02:14:13.531Z,62.37
2022-11-29T02:16:56.370Z,62.84
2022-11-29T02:20:01.933Z,62.80
2022-11-29T02:22:55.226Z,63.02
2022-11-29T02:25:44.079Z,62.95
2022-11-29T02:28:30.291Z,63.12
2022-11-29T02:31:04.071Z,62.80
2022-11-29T02:33:54.155Z,62.49
2022-11-29T02:36:40.329Z,62.83
2022-11-29T02:39:07.570Z,62.59
2022-11-29T02:41:47.109Z,63.53
2022-11-29T02:44:32.509Z,63.59
2022-11-29T02:47:12.502Z,63.59
2022-11-29T02:50:10.590Z,63.59
2022-11-29T02:52:56.919Z,62.85
2022-11-29T02:55:47.580Z,62.58
2022-11-29T02:58:43.129Z,62.19
2022-11-29T03:01:31.620Z,62.78
2022-11-29T03:04:16.726Z,62.41
2022-11-29T03:06:51.442Z,62.21
2022-11-29T03:09:32.312Z,62.37
2022-11-29T03:12:11.687Z,62.51
2022-11-29T03:14:39.190Z,62.74
2022-11-29T03:17:33.380Z,63.17
2022-11-29T03:20:19.798Z,62.65
2022-11-29T03:22:49.634Z,62.29
2022-11-29T03:25:28.606Z,61.95
2022-11-29T03:28:01.902Z,62.20
2022-11-29T03:30:31.887Z,62.10
2022-11-29T03:33:17.999Z,62.19
2022-11-29T03:35:55.299Z,61.29
2022-11-29T03:38:30.674Z,61.63
2022-11-29T03:41:12.094Z,61.51
2022-11-29T03:44:03.868Z,62.15
2022-11-29T03:46:38.659Z,62.12
2022-11-29T03:49:15.596Z,61.95
2022-11-29T03:51:54.546Z,61.97
2022-11-29T03:54:26.278Z,61.95
2022-11-29T03:56:54.225Z,61.84
2022-11-29T03:59:36.424Z,61.60
2022-11-29T04:02:13.303Z,61.59
2022-11-29T04:05:12.170Z,61.34
2022-11-29T04:07:45.411Z,61.08
2022-11-29T04:10:47.258Z,60.96
2022-11-29T04:13:43.089Z,61.34
2022-11-29T04:16:36.242Z,61.43
2022-11-29T04:19:37.675Z,61.62
2022-11-29T04:22:20.578Z,60.98
2022-11-29T04:24:56.629Z,60.87
2022-11-29T04:27:54.541Z,61.27
2022-11-29T04:30:23.871Z,61.03
2022-11-29T04:33:17.062Z,61.57
2022-11-29T04:36:03.319Z,61.33
2022-11-29T04:38:47.917Z,61.10
2022-11-29T04:41:21.163Z,61.57
2022-11-29T04:43:53.214Z,61.39
2022-11-29T04:46:23.470Z,61.51
2022-11-29T04:49:17.153Z,61.46
2022-11-29T04:51:57.034Z,61.32
2022-11-29T04:54:29.979Z,61.66
2022-11-29T04:57:07.785Z,61.69
2022-11-29T04:59:49.996Z,61.57
2022-11-29T05:02:33.343Z,61.54
2022-11-29T05:05:12.522Z,61.40
2022-11-29T05:07:47.143Z,60.91
2022-11-29T05:10:39.806Z,61.53
2022-11-29T05:13:14.714Z,61.41
2022-11-29T05:16:08.937Z,61.90
2022-11-29T05:18:50.009Z,61.82
2022-11-29T05:21:56.650Z,61.64
2022-11-29T05:24:42.811Z,61.16
2022-11-29T05:27:16.098Z,61.57
2022-11-29T05:29:48.917Z,61.29
2022-11-29T05:32:24.303Z,61.60
2022-11-29T05:35:16.146Z,61.64
2022-11-29T05:37:49.350Z,61.65
2022-11-29T05:41:06.443Z,61.67
2022-11-29T05:43:52.119Z,61.71
2022-11-29T05:46:29.248Z,61.95
2022-11-29T05:49:21.639Z,61.99
2022-11-29T05:52:04.077Z,62.53
2022-11-29T05:54:38.280Z,62.09
2022-11-29T05:57:08.582Z,62.90
2022-11-29T05:59:38.653Z,63.12
2022-11-29T06:02:21.157Z,63.62
2022-11-29T06:04:57.268Z,63.54
2022-11-29T06:07:30.882Z,63.82
2022-11-29T06:10:06.058Z,63.79
2022-11-29T06:12:35.928Z,63.77
2022-11-29T06:15:18.785Z,63.40
2022-11-29T06:18:07.843Z,63.27
2022-11-29T06:20:57.168Z,62.99
2022-11-29T06:23:30.199Z,62.49
2022-11-29T06:26:04.835Z,61.75
2022-11-29T06:29:11.443Z,61.86
2022-11-29T06:31:44.542Z,62.25
2022-11-29T06:34:18.108Z,61.82
2022-11-29T06:36:52.630Z,61.92
2022-11-29T06:39:20.434Z,61.24
2022-11-29T06:41:48.897Z,61.15
2022-11-29T06:44:16.677Z,61.68
2022-11-29T06:47:09.365Z,61.24
2022-11-29T06:49:45.488Z,61.49
2022-11-29T06:52:40.562Z,61.63
2022-11-29T06:55:21.130Z,61.61
2022-11-29T06:58:06.626Z,61.64
2022-11-29T07:00:47.458Z,61.30
2022-11-29T07:03:45.868Z,61.77
2022-11-29T07:06:24.003Z,61.70
2022-11-29T07:09:03.768Z,62.20
2022-11-29T07:11:31.727Z,62.05
2022-11-29T07:13:59.167Z,62.60
2022-11-29T07:16:32.014Z,62.80
2022-11-29T07:19:30.962Z,62.36
2022-11-29T07:22:29.409Z,62.80
2022-11-29T07:25:25.662Z,68.66
2022-11-29T07:28:08.511Z,63.19
2022-11-29T07:30:47.544Z,62.66
2022-11-29T07:33:27.151Z,62.32
2022-11-29T07:36:00.666Z,62.70
2022-11-29T07:38:45.313Z,61.85
2022-11-29T07:41:19.235Z,61.83
2022-11-29T07:44:04.965Z,62.37
2022-11-29T07:46:32.572Z,61.93
2022-11-29T07:48:59.958Z,64.49
2022-11-29T07:51:27.262Z,63.47
2022-11-29T07:53:54.875Z,62.46
2022-11-29T07:56:22.248Z,63.00
2022-11-29T07:58:49.656Z,62.96
2022-11-29T08:01:17.308Z,62.56
2022-11-29T08:03:44.994Z,62.55
2022-11-29T08:06:12.470Z,62.21
2022-11-29T08:08:43.908Z,62.22
2022-11-29T08:11:12.842Z,62.11
2022-11-29T08:13:40.247Z,62.21
2022-11-29T08:16:07.765Z,62.54
2022-11-29T08:18:38.295Z,62.06
2022-11-29T08:21:07.385Z,62.17
2022-11-29T08:23:34.995Z,62.45
2022-11-29T08:26:03.598Z,63.05
2022-11-29T08:28:30.954Z,62.69
2022-11-29T08:31:06.261Z,62.10
2022-11-29T08:33:38.356Z,62.44
2022-11-29T08:36:11.239Z,61.64
2022-11-29T08:38:39.192Z,61.97
2022-11-29T08:41:08.781Z,61.95
2022-11-29T08:43:36.188Z,60.94
2022-11-29T08:46:03.910Z,61.42
2022-11-29T08:48:31.696Z,60.95
2022-11-29T08:50:59.067Z,61.64
2022-11-29T08:53:41.541Z,61.04
2022-11-29T08:56:59.663Z,61.39
2022-11-29T08:59:01.727Z,61.41
2022-11-29T09:01:29.574Z,60.73
2022-11-29T09:03:59.958Z,61.54
2022-11-29T09:06:29.418Z,62.12
2022-11-29T09:08:58.080Z,62.22
2022-11-29T09:11:26.890Z,62.17
2022-11-29T09:13:57.242Z,61.61
2022-11-29T09:16:27.424Z,61.90
2022-11-29T09:18:56.016Z,61.82
2022-11-29T09:21:25.710Z,61.52
2022-11-29T09:23:59.301Z,61.21
2022-11-29T09:26:31.299Z,60.63
2022-11-29T09:29:01.188Z,61.21
2022-11-29T09:31:29.854Z,60.40
2022-11-29T09:33:57.641Z,60.61
2022-11-29T09:36:29.093Z,60.43
2022-11-29T09:39:02.834Z,60.24
2022-11-29T09:41:55.007Z,60.54
2022-11-29T09:44:27.021Z,76.73
2022-11-29T09:47:32.995Z,72.47
2022-11-29T09:50:27.486Z,64.91
2022-11-29T09:53:05.002Z,60.95
2022-11-29T09:56:04.506Z,58.15
2022-11-29T09:58:40.460Z,57.80
2022-11-29T10:01:10.929Z,59.21
2022-11-29T10:03:41.872Z,58.23
2022-11-29T10:06:25.479Z,58.25
2022-11-29T10:09:06.206Z,58.94
2022-11-29T10:11:38.304Z,58.93
2022-11-29T10:14:22.496Z,58.62
2022-11-29T10:16:55.022Z,58.18
2022-11-29T10:19:28.321Z,58.80
2022-11-29T10:22:06.493Z,58.22
2022-11-29T10:24:34.173Z,57.59
2022-11-29T10:27:01.771Z,58.22
2022-11-29T10:29:29.325Z,57.70
2022-11-29T10:31:59.225Z,57.89
2022-11-29T10:34:26.822Z,57.35
2022-11-29T10:37:04.376Z,57.21
2022-11-29T10:39:44.623Z,57.93
2022-11-29T10:42:35.950Z,57.79
2022-11-29T10:45:06.353Z,57.20
2022-11-29T10:47:33.752Z,57.00
2022-11-29T10:50:01.134Z,58.79
2022-11-29T10:52:28.827Z,58.30
2022-11-29T10:54:57.215Z,57.17
2022-11-29T10:57:24.602Z,57.63
2022-11-29T11:00:04.387Z,57.13
2022-11-29T11:02:33.000Z,57.42
2022-11-29T11:05:01.201Z,58.40
2022-11-29T11:07:36.019Z,57.50
2022-11-29T11:10:06.635Z,57.49
2022-11-29T11:12:34.925Z,57.72
2022-11-29T11:15:28.229Z,57.24
2022-11-29T11:17:58.739Z,56.78
2022-11-29T11:20:29.535Z,57.10
2022-11-29T11:23:02.595Z,56.93
2022-11-29T11:25:36.939Z,57.99
2022-11-29T11:28:21.214Z,56.77
2022-11-29T11:31:02.432Z,57.67
2022-11-29T11:33:37.715Z,57.73
2022-11-29T11:36:09.799Z,58.44
2022-11-29T11:38:49.575Z,57.88
2022-11-29T11:41:18.684Z,57.97
2022-11-29T11:43:51.785Z,58.02
2022-11-29T11:46:19.216Z,57.81
2022-11-29T11:48:47.330Z,57.84
2022-11-29T11:51:25.733Z,57.99
2022-11-29T11:53:56.248Z,57.55
2022-11-29T11:56:24.445Z,57.97
2022-11-29T11:58:52.611Z,57.80
2022-11-29T12:01:25.223Z,57.95
2022-11-29T12:04:01.871Z,58.22
2022-11-29T12:06:40.044Z,58.15
2022-11-29T12:09:28.395Z,58.36
2022-11-29T12:12:21.602Z,57.78
2022-11-29T12:15:04.450Z,58.19
2022-11-29T12:17:31.580Z,58.29
2022-11-29T12:20:10.303Z,57.76
2022-11-29T12:22:47.893Z,57.77
2022-11-29T12:25:23.631Z,57.78
2022-11-29T12:27:51.468Z,57.40
2022-11-29T12:30:19.642Z,57.69
2022-11-29T12:33:17.974Z,57.25
2022-11-29T12:35:51.359Z,57.36
2022-11-29T12:38:39.702Z,57.59
2022-11-29T12:41:16.368Z,57.54
2022-11-29T12:43:49.772Z,57.46
2022-11-29T12:46:28.236Z,57.59
2022-11-29T12:49:19.920Z,58.19
2022-11-29T12:51:57.081Z,57.53
2022-11-29T12:54:33.529Z,58.40
2022-11-29T12:57:10.033Z,57.74
2022-11-29T12:59:55.938Z,58.15
2022-11-29T13:02:49.057Z,58.26
2022-11-29T13:05:19.541Z,57.98
2022-11-29T13:08:16.202Z,58.49
2022-11-29T13:11:15.746Z,58.92
2022-11-29T13:13:48.989Z,58.46
2022-11-29T13:16:35.205Z,58.33
2022-11-29T13:19:15.193Z,59.82
2022-11-29T13:22:01.428Z,58.86
2022-11-29T13:24:37.108Z,58.94
2022-11-29T13:27:07.651Z,59.47
2022-11-29T13:29:35.522Z,58.93
2022-11-29T13:32:06.960Z,58.92
2022-11-29T13:34:42.936Z,59.45
2022-11-29T13:37:29.299Z,59.38
2022-11-29T13:40:15.630Z,58.99
2022-11-29T13:43:10.821Z,59.71
2022-11-29T13:45:47.718Z,59.42
2022-11-29T13:48:31.667Z,59.48
2022-11-29T13:51:32.243Z,59.17
2022-11-29T13:54:03.052Z,58.76
2022-11-29T13:56:36.096Z,58.98
2022-11-29T13:59:08.589Z,59.43
2022-11-29T14:01:54.727Z,59.59
2022-11-29T14:04:29.127Z,59.25
2022-11-29T14:07:08.645Z,59.20
2022-11-29T14:09:42.546Z,59.70
2022-11-29T14:12:28.678Z,59.91
2022-11-29T14:15:03.356Z,59.89
2022-11-29T14:17:52.485Z,60.12
2022-11-29T14:20:44.210Z,63.01
2022-11-29T14:23:32.237Z,61.00
2022-11-29T14:26:00.645Z,60.60
2022-11-29T14:28:29.774Z,60.10
2022-11-29T14:31:04.960Z,60.25
2022-11-29T14:33:57.631Z,60.57
2022-11-29T14:36:43.274Z,60.09
2022-11-29T14:39:29.650Z,59.55
2022-11-29T14:42:16.894Z,59.95
2022-11-29T14:44:47.752Z,60.40
2022-11-29T14:47:30.025Z,60.53
2022-11-29T14:50:00.042Z,60.09
2022-11-29T14:52:30.025Z,59.80
2022-11-29T14:55:05.720Z,59.78
2022-11-29T14:57:51.313Z,60.04
2022-11-29T15:00:27.699Z,60.66
2022-11-29T15:03:02.366Z,59.28
2022-11-29T15:05:35.502Z,59.31
2022-11-29T15:08:18.873Z,60.20
2022-11-29T15:10:52.229Z,60.01
2022-11-29T15:13:43.805Z,59.99
2022-11-29T15:16:33.592Z,59.96
2022-11-29T15:19:14.046Z,60.03
2022-11-29T15:22:09.757Z,60.27
2022-11-29T15:25:13.930Z,60.91
2022-11-29T15:27:55.995Z,60.58
2022-11-29T15:30:40.546Z,60.96
2022-11-29T15:33:19.441Z,61.33
2022-11-29T15:35:55.557Z,61.14
2022-11-29T15:38:24.400Z,61.11
2022-11-29T15:40:53.610Z,60.82
2022-11-29T15:43:25.585Z,61.50
2022-11-29T15:45:55.420Z,61.64
2022-11-29T15:48:27.914Z,61.21
2022-11-29T15:50:59.006Z,61.60
2022-11-29T15:53:32.215Z,61.42
2022-11-29T15:56:02.106Z,61.49
2022-11-29T15:58:31.816Z,61.21
2022-11-29T16:01:00.779Z,60.98
2022-11-29T16:03:31.154Z,60.17
2022-11-29T16:06:07.173Z,60.21
2022-11-29T16:08:41.708Z,62.37
2022-11-29T16:11:15.379Z,60.25
2022-11-29T16:14:18.487Z,61.95
2022-11-29T16:16:47.367Z,60.48
2022-11-29T16:19:22.673Z,60.16
2022-11-29T16:22:25.813Z,59.95
2022-11-29T16:25:05.230Z,60.03
2022-11-29T16:27:34.525Z,60.02
2022-11-29T16:30:02.712Z,59.75
2022-11-29T16:32:35.929Z,60.31
2022-11-29T16:35:12.936Z,59.99
2022-11-29T16:37:42.673Z,59.53
2022-11-29T16:40:29.487Z,59.78
2022-11-29T16:43:13.649Z,59.86
2022-11-29T16:45:42.329Z,59.65
2022-11-29T16:48:21.930Z,59.27
2022-11-29T16:51:13.313Z,59.60
2022-11-29T16:53:42.412Z,59.26
2022-11-29T16:56:14.623Z,59.01
2022-11-29T16:59:25.464Z,59.11
2022-11-29T17:01:31.504Z,59.10
2022-11-29T17:04:00.006Z,59.43
2022-11-29T17:06:29.053Z,59.31
2022-11-29T17:08:58.243Z,59.39
2022-11-29T17:11:25.911Z,58.58
2022-11-29T17:13:53.570Z,58.58
2022-11-29T17:16:22.916Z,58.97
2022-11-29T17:18:52.681Z,60.06
2022-11-29T17:21:22.418Z,60.25
2022-11-29T17:23:50.704Z,59.59
2022-11-29T17:26:18.337Z,60.57
2022-11-29T17:28:48.078Z,60.56
2022-11-29T17:31:17.799Z,60.54
2022-11-29T17:33:45.263Z,60.53
2022-11-29T17:36:15.291Z,60.41
2022-11-29T17:38:44.260Z,60.17
2022-11-29T17:41:20.871Z,60.54
2022-11-29T17:43:49.513Z,60.88
2022-11-29T17:46:20.333Z,61.04
2022-11-29T17:48:48.216Z,60.59
2022-11-29T17:51:43.836Z,59.93
2022-11-29T17:54:05.041Z,60.46
2022-11-29T17:56:32.719Z,60.56
2022-11-29T17:59:01.520Z,60.58
2022-11-29T18:01:31.751Z,60.62
2022-11-29T18:04:01.407Z,60.68
2022-11-29T18:06:35.807Z,60.29
2022-11-29T18:09:07.501Z,60.22
2022-11-29T18:11:46.327Z,60.47
2022-11-29T18:14:19.990Z,60.53
2022-11-29T18:16:47.513Z,60.27
2022-11-29T18:19:17.892Z,60.46
2022-11-29T18:21:45.562Z,60.81
2022-11-29T18:24:13.249Z,60.03
2022-11-29T18:26:41.506Z,60.06
2022-11-29T18:29:09.607Z,60.10
2022-11-29T18:31:39.392Z,59.88
2022-11-29T18:34:09.497Z,60.03
2022-11-29T18:36:43.090Z,59.97
2022-11-29T18:39:15.761Z,60.14
2022-11-29T18:41:44.351Z,60.12
2022-11-29T18:44:14.061Z,59.85
2022-11-29T18:46:43.405Z,60.16
2022-11-29T18:49:13.281Z,59.76
2022-11-29T18:51:42.995Z,59.83
2022-11-29T18:54:10.469Z,60.03
2022-11-29T18:56:38.594Z,60.11
2022-11-29T18:59:10.237Z,60.02
2022-11-29T19:01:41.239Z,59.83
2022-11-29T19:04:13.954Z,59.66
2022-11-29T19:06:41.965Z,59.63
2022-11-29T19:09:21.292Z,59.91
2022-11-29T19:11:49.730Z,59.95
2022-11-29T19:14:17.898Z,60.10
2022-11-29T19:16:47.103Z,59.97
2022-11-29T19:19:14.449Z,60.28
2022-11-29T19:21:42.346Z,60.37
2022-11-29T19:24:14.668Z,60.12
2022-11-29T19:26:47.107Z,60.34
2022-11-29T19:29:14.738Z,60.73
2022-11-29T19:31:42.637Z,62.42
2022-11-29T19:34:11.016Z,62.89
2022-11-29T19:36:43.408Z,61.44
2022-11-29T19:39:13.124Z,60.40
2022-11-29T19:41:42.090Z,59.81
2022-11-29T19:44:09.747Z,59.77
2022-11-29T19:46:39.651Z,59.60
2022-11-29T19:49:08.659Z,59.78
2022-11-29T19:51:36.726Z,59.76
2022-11-29T19:54:06.126Z,59.73
2022-11-29T19:56:33.546Z,60.26
2022-11-29T19:59:00.909Z,60.34
2022-11-29T20:01:37.784Z,60.39
2022-11-29T20:04:07.631Z,60.47
2022-11-29T20:06:35.054Z,60.22
2022-11-29T20:09:03.242Z,59.93
2022-11-29T20:11:30.820Z,60.28
2022-11-29T20:14:00.188Z,60.20
2022-11-29T20:16:29.459Z,59.68
2022-11-29T20:18:57.814Z,59.85
2022-11-29T20:21:27.642Z,59.94
2022-11-29T20:23:56.742Z,60.15
2022-11-29T20:26:24.633Z,59.81
2022-11-29T20:28:52.182Z,59.54
2022-11-29T20:31:24.058Z,59.69
2022-11-29T20:33:53.157Z,59.05
2022-11-29T20:36:32.366Z,59.49
2022-11-29T20:39:12.523Z,59.48
2022-11-29T20:41:50.028Z,59.52
2022-11-29T20:44:22.990Z,59.56
2022-11-29T20:46:50.440Z,59.16
2022-11-29T20:49:18.423Z,58.88
2022-11-29T20:52:05.995Z,59.17
2022-11-29T20:54:33.614Z,59.31
2022-11-29T20:57:00.971Z,59.27
2022-11-29T20:59:28.339Z,58.73
2022-11-29T21:01:57.497Z,58.80
2022-11-29T21:04:24.945Z,58.55
2022-11-29T21:06:52.237Z,58.23
2022-11-29T21:09:19.782Z,58.25
2022-11-29T21:11:47.345Z,58.50
2022-11-29T21:14:14.907Z,58.26
2022-11-29T21:16:42.694Z,58.45
2022-11-29T21:19:17.102Z,57.85
2022-11-29T21:22:14.577Z,57.80
2022-11-29T21:25:09.953Z,58.12
2022-11-29T21:27:37.901Z,57.52
2022-11-29T21:30:07.050Z,57.79
2022-11-29T21:32:34.653Z,57.69
2022-11-29T21:35:02.220Z,57.54
2022-11-29T21:37:30.979Z,57.08
2022-11-29T21:39:58.405Z,57.31
2022-11-29T21:42:26.758Z,57.15
2022-11-29T21:44:54.128Z,57.61
2022-11-29T21:47:21.507Z,57.93
2022-11-29T21:49:49.679Z,57.37
2022-11-29T21:52:22.173Z,57.92
2022-11-29T21:54:50.727Z,56.85
2022-11-29T21:57:18.028Z,56.95
2022-11-29T21:59:45.355Z,56.90
2022-11-29T22:02:13.002Z,56.94
2022-11-29T22:04:40.593Z,57.06
2022-11-29T22:07:07.911Z,56.67
2022-11-29T22:09:35.199Z,57.01
2022-11-29T22:12:14.816Z,56.80
2022-11-29T22:14:50.941Z,57.08
2022-11-29T22:17:18.510Z,57.14
2022-11-29T22:19:45.803Z,56.75
2022-11-29T22:22:13.288Z,55.96
2022-11-29T22:24:40.894Z,56.49
2022-11-29T22:27:08.197Z,56.36
2022-11-29T22:29:35.577Z,56.03
2022-11-29T22:32:03.250Z,55.70
2022-11-29T22:34:30.598Z,55.40
2022-11-29T22:36:57.951Z,55.33
2022-11-29T22:39:25.661Z,55.33
2022-11-29T22:41:54.895Z,55.73
2022-11-29T22:44:23.477Z,55.87
2022-11-29T22:46:51.198Z,55.60
2022-11-29T22:49:18.620Z,55.35
2022-11-29T22:51:45.987Z,55.47
2022-11-29T22:54:17.397Z,54.85
2022-11-29T22:56:45.517Z,55.27
2022-11-29T22:59:12.969Z,55.50
2022-11-29T23:01:41.397Z,55.10
2022-11-29T23:04:10.705Z,55.02
2022-11-29T23:06:43.056Z,54.71
2022-11-29T23:09:16.460Z,54.93
2022-11-29T23:11:45.710Z,54.70
2022-11-29T23:14:13.565Z,54.70
2022-11-29T23:16:40.891Z,54.88
2022-11-29T23:19:08.315Z,55.00
2022-11-29T23:21:37.777Z,54.98
2022-11-29T23:24:06.087Z,54.88
2022-11-29T23:26:37.403Z,55.00
2022-11-29T23:29:06.667Z,54.90
2022-11-29T23:31:34.423Z,54.64
2022-11-29T23:34:03.156Z,54.65
2022-11-29T23:36:30.816Z,54.47
2022-11-29T23:38:58.402Z,54.23
2022-11-29T23:41:25.807Z,54.20
2022-11-29T23:43:53.455Z,54.34
2022-11-29T23:46:22.918Z,54.01
2022-11-29T23:48:51.175Z,54.10
2022-11-29T23:51:19.544Z,53.95
2022-11-29T23:53:51.119Z,53.88
2022-11-29T23:56:18.952Z,53.62
2022-11-29T23:58:47.070Z,53.46
